sensor_id;sensor_type;location;lat;lon;timestamp;temperature;humidity
10433;DHT22;5263;48.680;9.004;2022-12-07T00:01:08;2.90;99.90
10433;DHT22;5263;48.680;9.004;2022-12-07T00:03:34;3.00;99.90
10433;DHT22;5263;48.680;9.004;2022-12-07T00:06:01;3.00;99.90
10433;DHT22;5263;48.680;9.004;2022-12-07T00:08:27;3.00;99.90
10433;DHT22;5263;48.680;9.004;2022-12-07T00:10:52;3.00;99.90
10433;DHT22;5263;48.680;9.004;2022-12-07T00:13:18;3.00;99.90
10433;DHT22;5263;48.680;9.004;2022-12-07T00:15:44;3.00;99.90
10433;DHT22;5263;48.680;9.004;2022-12-07T00:18:10;3.10;99.90
10433;DHT22;5263;48.680;9.004;2022-12-07T00:20:35;3.10;99.90
10433;DHT22;5263;48.680;9.004;2022-12-07T00:23:01;3.00;99.90
10433;DHT22;5263;48.680;9.004;2022-12-07T00:25:27;3.00;99.90
10433;DHT22;5263;48.680;9.004;2022-12-07T00:27:53;3.00;99.90
10433;DHT22;5263;48.680;9.004;2022-12-07T00:30:21;3.00;99.90
10433;DHT22;5263;48.680;9.004;2022-12-07T00:32:46;3.00;99.90
10433;DHT22;5263;48.680;9.004;2022-12-07T00:35:13;3.00;99.90
10433;DHT22;5263;48.680;9.004;2022-12-07T00:37:38;3.00;99.90
10433;DHT22;5263;48.680;9.004;2022-12-07T00:40:05;3.00;99.90
10433;DHT22;5263;48.680;9.004;2022-12-07T00:42:31;3.10;99.90
10433;DHT22;5263;48.680;9.004;2022-12-07T00:44:57;3.10;99.90
10433;DHT22;5263;48.680;9.004;2022-12-07T00:47:22;3.10;99.90
10433;DHT22;5263;48.680;9.004;2022-12-07T00:49:48;2.90;99.90
10433;DHT22;5263;48.680;9.004;2022-12-07T00:52:13;2.80;99.90
10433;DHT22;5263;48.680;9.004;2022-12-07T00:54:40;2.60;99.90
10433;DHT22;5263;48.680;9.004;2022-12-07T00:57:05;2.70;99.90
10433;DHT22;5263;48.680;9.004;2022-12-07T00:59:31;2.70;99.90
10433;DHT22;5263;48.680;9.004;2022-12-07T01:01:56;3.00;99.90
10433;DHT22;5263;48.680;9.004;2022-12-07T01:04:22;2.90;99.90
10433;DHT22;5263;48.680;9.004;2022-12-07T01:06:47;2.90;99.90
10433;DHT22;5263;48.680;9.004;2022-12-07T01:09:13;2.80;99.90
10433;DHT22;5263;48.680;9.004;2022-12-07T01:11:39;2.80;99.90
10433;DHT22;5263;48.680;9.004;2022-12-07T01:14:04;2.90;99.90
10433;DHT22;5263;48.680;9.004;2022-12-07T01:16:31;2.90;99.90
10433;DHT22;5263;48.680;9.004;2022-12-07T01:18:59;3.00;99.90
10433;DHT22;5263;48.680;9.004;2022-12-07T01:21:30;2.90;99.90
10433;DHT22;5263;48.680;9.004;2022-12-07T01:24:00;3.00;99.90
10433;DHT22;5263;48.680;9.004;2022-12-07T01:26:26;2.90;99.90
10433;DHT22;5263;48.680;9.004;2022-12-07T01:28:52;3.00;99.90
10433;DHT22;5263;48.680;9.004;2022-12-07T01:31:21;2.80;99.90
10433;DHT22;5263;48.680;9.004;2022-12-07T01:33:52;2.90;99.90
10433;DHT22;5263;48.680;9.004;2022-12-07T01:38:46;2.70;99.90
10433;DHT22;5263;48.680;9.004;2022-12-07T01:41:13;2.70;99.90
10433;DHT22;5263;48.680;9.004;2022-12-07T01:47:00;2.60;99.90
10433;DHT22;5263;48.680;9.004;2022-12-07T01:49:39;2.70;99.90
10433;DHT22;5263;48.680;9.004;2022-12-07T01:54:44;2.80;99.90
10433;DHT22;5263;48.680;9.004;2022-12-07T01:57:12;2.70;99.90
10433;DHT22;5263;48.680;9.004;2022-12-07T01:59:39;2.60;99.90
10433;DHT22;5263;48.680;9.004;2022-12-07T02:02:10;2.40;99.90
10433;DHT22;5263;48.680;9.004;2022-12-07T02:04:37;2.40;99.90
10433;DHT22;5263;48.680;9.004;2022-12-07T02:07:04;2.40;99.90
10433;DHT22;5263;48.680;9.004;2022-12-07T02:09:30;2.60;99.90
10433;DHT22;5263;48.680;9.004;2022-12-07T02:11:56;2.70;99.90
10433;DHT22;5263;48.680;9.004;2022-12-07T02:14:22;2.80;99.90
10433;DHT22;5263;48.680;9.004;2022-12-07T02:17:09;2.90;99.90
10433;DHT22;5263;48.680;9.004;2022-12-07T02:27:50;2.90;99.90
10433;DHT22;5263;48.680;9.004;2022-12-07T02:30:20;2.80;99.90
10433;DHT22;5263;48.680;9.004;2022-12-07T02:33:05;2.80;99.90
10433;DHT22;5263;48.680;9.004;2022-12-07T02:35:51;2.70;99.90
10433;DHT22;5263;48.680;9.004;2022-12-07T02:38:38;2.70;99.90
10433;DHT22;5263;48.680;9.004;2022-12-07T02:41:28;2.60;99.90
10433;DHT22;5263;48.680;9.004;2022-12-07T02:44:02;2.70;99.90
10433;DHT22;5263;48.680;9.004;2022-12-07T02:46:38;2.80;99.90
10433;DHT22;5263;48.680;9.004;2022-12-07T02:49:06;2.80;99.90
10433;DHT22;5263;48.680;9.004;2022-12-07T02:51:34;2.80;99.90
10433;DHT22;5263;48.680;9.004;2022-12-07T02:54:11;2.80;99.90
10433;DHT22;5263;48.680;9.004;2022-12-07T03:05:13;2.70;99.90
10433;DHT22;5263;48.680;9.004;2022-12-07T03:09:59;2.80;99.90
10433;DHT22;5263;48.680;9.004;2022-12-07T03:12:41;2.70;99.90
10433;DHT22;5263;48.680;9.004;2022-12-07T03:15:14;2.70;99.90
10433;DHT22;5263;48.680;9.004;2022-12-07T03:17:43;2.70;99.90
10433;DHT22;5263;48.680;9.004;2022-12-07T03:20:13;2.60;99.90
10433;DHT22;5263;48.680;9.004;2022-12-07T03:22:41;2.60;99.90
10433;DHT22;5263;48.680;9.004;2022-12-07T03:25:11;2.60;99.90
10433;DHT22;5263;48.680;9.004;2022-12-07T03:27:53;2.70;99.90
10433;DHT22;5263;48.680;9.004;2022-12-07T03:30:24;2.70;99.90
10433;DHT22;5263;48.680;9.004;2022-12-07T03:33:42;2.60;99.90
10433;DHT22;5263;48.680;9.004;2022-12-07T03:36:18;2.70;99.90
10433;DHT22;5263;48.680;9.004;2022-12-07T03:41:50;2.80;99.90
10433;DHT22;5263;48.680;9.004;2022-12-07T03:44:17;2.80;99.90
10433;DHT22;5263;48.680;9.004;2022-12-07T03:50:04;2.60;99.90
10433;DHT22;5263;48.680;9.004;2022-12-07T03:52:40;2.40;99.90
10433;DHT22;5263;48.680;9.004;2022-12-07T03:55:23;2.30;99.90
10433;DHT22;5263;48.680;9.004;2022-12-07T03:57:53;2.40;99.90
10433;DHT22;5263;48.680;9.004;2022-12-07T04:00:20;2.40;99.90
10433;DHT22;5263;48.680;9.004;2022-12-07T04:02:46;2.50;99.90
10433;DHT22;5263;48.680;9.004;2022-12-07T04:05:12;2.40;99.90
10433;DHT22;5263;48.680;9.004;2022-12-07T04:07:38;2.50;99.90
10433;DHT22;5263;48.680;9.004;2022-12-07T04:10:04;2.40;99.90
10433;DHT22;5263;48.680;9.004;2022-12-07T04:12:30;2.30;99.90
10433;DHT22;5263;48.680;9.004;2022-12-07T04:14:56;2.50;99.90
10433;DHT22;5263;48.680;9.004;2022-12-07T04:17:21;2.40;99.90
10433;DHT22;5263;48.680;9.004;2022-12-07T04:19:47;2.40;99.90
10433;DHT22;5263;48.680;9.004;2022-12-07T04:22:12;2.50;99.90
10433;DHT22;5263;48.680;9.004;2022-12-07T04:24:38;2.30;99.90
10433;DHT22;5263;48.680;9.004;2022-12-07T04:27:04;2.20;99.90
10433;DHT22;5263;48.680;9.004;2022-12-07T04:29:30;2.30;99.90
10433;DHT22;5263;48.680;9.004;2022-12-07T04:31:55;2.50;99.90
10433;DHT22;5263;48.680;9.004;2022-12-07T04:34:21;2.60;99.90
10433;DHT22;5263;48.680;9.004;2022-12-07T04:36:47;2.60;99.90
10433;DHT22;5263;48.680;9.004;2022-12-07T04:39:21;2.80;99.90
10433;DHT22;5263;48.680;9.004;2022-12-07T04:41:46;2.50;99.90
10433;DHT22;5263;48.680;9.004;2022-12-07T04:44:12;2.40;99.90
10433;DHT22;5263;48.680;9.004;2022-12-07T04:46:40;2.30;99.90
10433;DHT22;5263;48.680;9.004;2022-12-07T04:49:06;2.30;99.90
10433;DHT22;5263;48.680;9.004;2022-12-07T04:51:32;2.20;99.90
10433;DHT22;5263;48.680;9.004;2022-12-07T04:53:57;2.30;99.90
10433;DHT22;5263;48.680;9.004;2022-12-07T04:56:24;2.40;99.90
10433;DHT22;5263;48.680;9.004;2022-12-07T04:58:50;2.40;99.90
10433;DHT22;5263;48.680;9.004;2022-12-07T05:01:17;2.40;99.90
10433;DHT22;5263;48.680;9.004;2022-12-07T05:03:43;2.40;99.90
10433;DHT22;5263;48.680;9.004;2022-12-07T05:06:09;2.40;99.90
10433;DHT22;5263;48.680;9.004;2022-12-07T05:08:35;2.30;99.90
10433;DHT22;5263;48.680;9.004;2022-12-07T05:11:02;2.30;99.90
10433;DHT22;5263;48.680;9.004;2022-12-07T05:13:28;2.10;99.90
10433;DHT22;5263;48.680;9.004;2022-12-07T05:15:54;1.90;99.90
10433;DHT22;5263;48.680;9.004;2022-12-07T05:18:19;2.00;99.90
10433;DHT22;5263;48.680;9.004;2022-12-07T05:20:45;1.80;99.90
10433;DHT22;5263;48.680;9.004;2022-12-07T05:23:11;1.80;99.90
10433;DHT22;5263;48.680;9.004;2022-12-07T05:25:37;1.90;99.90
10433;DHT22;5263;48.680;9.004;2022-12-07T05:28:03;1.90;99.90
10433;DHT22;5263;48.680;9.004;2022-12-07T05:30:29;2.10;99.90
10433;DHT22;5263;48.680;9.004;2022-12-07T05:32:55;1.90;99.90
10433;DHT22;5263;48.680;9.004;2022-12-07T05:35:21;1.90;99.90
10433;DHT22;5263;48.680;9.004;2022-12-07T05:37:47;2.00;99.90
10433;DHT22;5263;48.680;9.004;2022-12-07T05:40:13;2.00;99.90
10433;DHT22;5263;48.680;9.004;2022-12-07T05:42:39;1.90;99.90
10433;DHT22;5263;48.680;9.004;2022-12-07T05:45:06;2.20;99.90
10433;DHT22;5263;48.680;9.004;2022-12-07T05:47:32;2.30;99.90
10433;DHT22;5263;48.680;9.004;2022-12-07T05:49:57;2.50;99.90
10433;DHT22;5263;48.680;9.004;2022-12-07T05:52:23;2.70;99.90
10433;DHT22;5263;48.680;9.004;2022-12-07T05:54:49;3.00;99.90
10433;DHT22;5263;48.680;9.004;2022-12-07T05:57:14;2.80;99.90
10433;DHT22;5263;48.680;9.004;2022-12-07T05:59:40;2.60;99.90
10433;DHT22;5263;48.680;9.004;2022-12-07T06:02:11;2.40;99.90
10433;DHT22;5263;48.680;9.004;2022-12-07T06:04:40;2.10;99.90
10433;DHT22;5263;48.680;9.004;2022-12-07T06:07:06;1.90;99.90
10433;DHT22;5263;48.680;9.004;2022-12-07T06:09:33;1.70;99.90
10433;DHT22;5263;48.680;9.004;2022-12-07T06:11:59;1.50;99.90
10433;DHT22;5263;48.680;9.004;2022-12-07T06:14:43;1.50;99.90
10433;DHT22;5263;48.680;9.004;2022-12-07T06:17:10;1.50;99.90
10433;DHT22;5263;48.680;9.004;2022-12-07T06:19:36;1.40;99.90
10433;DHT22;5263;48.680;9.004;2022-12-07T06:22:02;1.20;99.90
10433;DHT22;5263;48.680;9.004;2022-12-07T06:24:28;1.00;99.90
10433;DHT22;5263;48.680;9.004;2022-12-07T06:26:53;0.90;99.90
10433;DHT22;5263;48.680;9.004;2022-12-07T06:29:19;0.90;99.90
10433;DHT22;5263;48.680;9.004;2022-12-07T06:31:45;0.80;99.90
10433;DHT22;5263;48.680;9.004;2022-12-07T06:34:13;0.80;99.90
10433;DHT22;5263;48.680;9.004;2022-12-07T06:36:40;0.90;99.90
10433;DHT22;5263;48.680;9.004;2022-12-07T06:39:06;0.90;99.90
10433;DHT22;5263;48.680;9.004;2022-12-07T06:41:37;0.80;99.90
10433;DHT22;5263;48.680;9.004;2022-12-07T06:44:06;1.00;99.90
10433;DHT22;5263;48.680;9.004;2022-12-07T06:46:32;1.10;99.90
10433;DHT22;5263;48.680;9.004;2022-12-07T06:48:58;1.20;99.90
10433;DHT22;5263;48.680;9.004;2022-12-07T06:51:23;1.20;99.90
10433;DHT22;5263;48.680;9.004;2022-12-07T06:53:49;1.00;99.90
10433;DHT22;5263;48.680;9.004;2022-12-07T06:56:15;1.00;99.90
10433;DHT22;5263;48.680;9.004;2022-12-07T06:58:41;0.80;99.90
10433;DHT22;5263;48.680;9.004;2022-12-07T07:01:14;0.90;99.90
10433;DHT22;5263;48.680;9.004;2022-12-07T07:03:40;1.00;99.90
10433;DHT22;5263;48.680;9.004;2022-12-07T07:06:06;1.10;99.90
10433;DHT22;5263;48.680;9.004;2022-12-07T07:08:33;0.90;99.90
10433;DHT22;5263;48.680;9.004;2022-12-07T07:10:59;0.80;99.90
10433;DHT22;5263;48.680;9.004;2022-12-07T07:13:24;0.80;99.90
10433;DHT22;5263;48.680;9.004;2022-12-07T07:15:50;0.80;99.90
10433;DHT22;5263;48.680;9.004;2022-12-07T07:18:16;0.80;99.90
10433;DHT22;5263;48.680;9.004;2022-12-07T07:20:41;0.80;99.90
10433;DHT22;5263;48.680;9.004;2022-12-07T07:23:07;0.90;99.90
10433;DHT22;5263;48.680;9.004;2022-12-07T07:25:33;0.90;99.90
10433;DHT22;5263;48.680;9.004;2022-12-07T07:27:59;1.00;99.90
10433;DHT22;5263;48.680;9.004;2022-12-07T07:30:25;1.10;99.90
10433;DHT22;5263;48.680;9.004;2022-12-07T07:32:51;1.10;99.90
10433;DHT22;5263;48.680;9.004;2022-12-07T07:35:16;1.20;99.90
10433;DHT22;5263;48.680;9.004;2022-12-07T07:37:42;1.20;99.90
10433;DHT22;5263;48.680;9.004;2022-12-07T07:40:09;1.10;99.90
10433;DHT22;5263;48.680;9.004;2022-12-07T07:42:35;1.20;99.90
10433;DHT22;5263;48.680;9.004;2022-12-07T07:45:00;1.20;99.90
10433;DHT22;5263;48.680;9.004;2022-12-07T07:47:26;1.20;99.90
10433;DHT22;5263;48.680;9.004;2022-12-07T07:49:51;1.30;99.90
10433;DHT22;5263;48.680;9.004;2022-12-07T07:52:17;1.20;99.90
10433;DHT22;5263;48.680;9.004;2022-12-07T07:54:43;1.40;99.90
10433;DHT22;5263;48.680;9.004;2022-12-07T07:57:08;1.40;99.90
10433;DHT22;5263;48.680;9.004;2022-12-07T07:59:34;1.60;99.90
10433;DHT22;5263;48.680;9.004;2022-12-07T08:01:59;1.60;99.90
10433;DHT22;5263;48.680;9.004;2022-12-07T08:04:25;1.50;99.90
10433;DHT22;5263;48.680;9.004;2022-12-07T08:06:51;1.50;99.90
10433;DHT22;5263;48.680;9.004;2022-12-07T08:09:17;1.60;99.90
10433;DHT22;5263;48.680;9.004;2022-12-07T08:11:42;1.70;99.90
10433;DHT22;5263;48.680;9.004;2022-12-07T08:14:09;1.90;99.90
10433;DHT22;5263;48.680;9.004;2022-12-07T08:16:35;2.10;99.90
10433;DHT22;5263;48.680;9.004;2022-12-07T08:19:00;2.20;99.90
10433;DHT22;5263;48.680;9.004;2022-12-07T08:21:26;2.20;99.90
10433;DHT22;5263;48.680;9.004;2022-12-07T08:23:51;2.20;99.90
10433;DHT22;5263;48.680;9.004;2022-12-07T08:26:17;2.10;99.90
10433;DHT22;5263;48.680;9.004;2022-12-07T08:28:43;2.10;99.90
10433;DHT22;5263;48.680;9.004;2022-12-07T08:31:14;2.00;99.90
10433;DHT22;5263;48.680;9.004;2022-12-07T08:33:41;1.90;99.90
10433;DHT22;5263;48.680;9.004;2022-12-07T08:36:09;1.80;99.90
10433;DHT22;5263;48.680;9.004;2022-12-07T08:38:36;1.80;99.90
10433;DHT22;5263;48.680;9.004;2022-12-07T08:41:02;1.80;99.90
10433;DHT22;5263;48.680;9.004;2022-12-07T08:43:28;1.60;99.90
10433;DHT22;5263;48.680;9.004;2022-12-07T08:46:11;1.90;99.90
10433;DHT22;5263;48.680;9.004;2022-12-07T08:48:45;2.00;99.90
10433;DHT22;5263;48.680;9.004;2022-12-07T08:51:12;1.90;99.90
10433;DHT22;5263;48.680;9.004;2022-12-07T08:53:39;2.10;99.90
10433;DHT22;5263;48.680;9.004;2022-12-07T08:56:05;2.20;99.90
10433;DHT22;5263;48.680;9.004;2022-12-07T08:58:33;2.20;99.90
10433;DHT22;5263;48.680;9.004;2022-12-07T09:00:59;2.30;99.90
10433;DHT22;5263;48.680;9.004;2022-12-07T09:03:25;2.30;99.90
10433;DHT22;5263;48.680;9.004;2022-12-07T09:05:50;2.50;99.90
10433;DHT22;5263;48.680;9.004;2022-12-07T09:08:17;2.50;99.90
10433;DHT22;5263;48.680;9.004;2022-12-07T09:10:43;2.70;99.90
10433;DHT22;5263;48.680;9.004;2022-12-07T09:13:09;2.70;99.90
10433;DHT22;5263;48.680;9.004;2022-12-07T09:15:34;3.00;99.90
10433;DHT22;5263;48.680;9.004;2022-12-07T09:18:00;3.10;99.90
10433;DHT22;5263;48.680;9.004;2022-12-07T09:20:25;3.40;99.90
10433;DHT22;5263;48.680;9.004;2022-12-07T09:22:51;3.30;99.90
10433;DHT22;5263;48.680;9.004;2022-12-07T09:25:16;3.50;99.90
10433;DHT22;5263;48.680;9.004;2022-12-07T09:27:42;3.50;99.90
10433;DHT22;5263;48.680;9.004;2022-12-07T09:30:08;3.40;99.90
10433;DHT22;5263;48.680;9.004;2022-12-07T09:32:34;3.30;99.90
10433;DHT22;5263;48.680;9.004;2022-12-07T09:35:00;3.50;99.90
10433;DHT22;5263;48.680;9.004;2022-12-07T09:37:25;3.70;99.90
10433;DHT22;5263;48.680;9.004;2022-12-07T09:39:51;3.80;99.90
10433;DHT22;5263;48.680;9.004;2022-12-07T09:42:38;4.00;99.90
10433;DHT22;5263;48.680;9.004;2022-12-07T09:45:19;3.70;99.90
10433;DHT22;5263;48.680;9.004;2022-12-07T09:47:46;3.70;99.90
10433;DHT22;5263;48.680;9.004;2022-12-07T09:50:16;3.90;99.90
10433;DHT22;5263;48.680;9.004;2022-12-07T09:52:43;4.10;99.90
10433;DHT22;5263;48.680;9.004;2022-12-07T09:55:15;4.00;99.90
10433;DHT22;5263;48.680;9.004;2022-12-07T09:57:42;3.90;99.90
10433;DHT22;5263;48.680;9.004;2022-12-07T10:00:19;3.60;99.90
10433;DHT22;5263;48.680;9.004;2022-12-07T10:03:08;3.60;99.90
10433;DHT22;5263;48.680;9.004;2022-12-07T10:05:35;3.80;99.90
10433;DHT22;5263;48.680;9.004;2022-12-07T10:08:02;4.00;99.90
10433;DHT22;5263;48.680;9.004;2022-12-07T10:10:33;4.10;99.90
10433;DHT22;5263;48.680;9.004;2022-12-07T10:15:58;4.50;99.90
10433;DHT22;5263;48.680;9.004;2022-12-07T10:18:31;4.60;99.90
10433;DHT22;5263;48.680;9.004;2022-12-07T10:23:27;4.30;99.90
10433;DHT22;5263;48.680;9.004;2022-12-07T10:25:52;4.40;99.90
10433;DHT22;5263;48.680;9.004;2022-12-07T10:28:21;4.50;99.90
10433;DHT22;5263;48.680;9.004;2022-12-07T10:31:15;4.60;99.90
10433;DHT22;5263;48.680;9.004;2022-12-07T10:33:48;4.60;99.90
10433;DHT22;5263;48.680;9.004;2022-12-07T10:38:53;4.50;99.90
10433;DHT22;5263;48.680;9.004;2022-12-07T10:41:23;4.40;99.90
10433;DHT22;5263;48.680;9.004;2022-12-07T10:43:54;4.20;99.90
10433;DHT22;5263;48.680;9.004;2022-12-07T10:49:52;4.10;99.90
10433;DHT22;5263;48.680;9.004;2022-12-07T10:52:27;4.20;99.90
10433;DHT22;5263;48.680;9.004;2022-12-07T10:57:46;4.10;99.90
10433;DHT22;5263;48.680;9.004;2022-12-07T11:03:22;4.00;99.90
10433;DHT22;5263;48.680;9.004;2022-12-07T11:11:37;4.00;99.90
10433;DHT22;5263;48.680;9.004;2022-12-07T11:24:58;4.40;99.90
10433;DHT22;5263;48.680;9.004;2022-12-07T11:30:32;4.30;99.90
10433;DHT22;5263;48.680;9.004;2022-12-07T11:38:46;4.30;99.90
10433;DHT22;5263;48.680;9.004;2022-12-07T11:41:22;4.50;99.90
10433;DHT22;5263;48.680;9.004;2022-12-07T11:46:17;4.50;99.90
10433;DHT22;5263;48.680;9.004;2022-12-07T11:49:02;4.30;99.90
10433;DHT22;5263;48.680;9.004;2022-12-07T11:51:32;4.30;99.90
10433;DHT22;5263;48.680;9.004;2022-12-07T11:54:17;4.30;99.90
10433;DHT22;5263;48.680;9.004;2022-12-07T11:56:45;4.40;99.90
10433;DHT22;5263;48.680;9.004;2022-12-07T12:04:55;4.10;99.90
10433;DHT22;5263;48.680;9.004;2022-12-07T12:07:26;4.10;99.90
10433;DHT22;5263;48.680;9.004;2022-12-07T12:10:03;4.30;99.90
10433;DHT22;5263;48.680;9.004;2022-12-07T12:15:18;4.20;99.90
10433;DHT22;5263;48.680;9.004;2022-12-07T12:21:09;4.10;99.90
10433;DHT22;5263;48.680;9.004;2022-12-07T12:23:48;4.00;99.90
10433;DHT22;5263;48.680;9.004;2022-12-07T12:26:28;4.10;99.90
10433;DHT22;5263;48.680;9.004;2022-12-07T12:29:06;3.90;99.90
10433;DHT22;5263;48.680;9.004;2022-12-07T12:31:38;3.80;99.90
10433;DHT22;5263;48.680;9.004;2022-12-07T12:36:55;3.90;99.90
10433;DHT22;5263;48.680;9.004;2022-12-07T12:39:21;4.00;99.90
10433;DHT22;5263;48.680;9.004;2022-12-07T12:46:57;4.00;99.90
10433;DHT22;5263;48.680;9.004;2022-12-07T12:57:28;4.00;99.90
10433;DHT22;5263;48.680;9.004;2022-12-07T13:02:38;4.10;99.90
10433;DHT22;5263;48.680;9.004;2022-12-07T13:15:47;4.40;99.90
10433;DHT22;5263;48.680;9.004;2022-12-07T13:26:17;4.50;99.90
10433;DHT22;5263;48.680;9.004;2022-12-07T13:31:35;4.60;99.90
10433;DHT22;5263;48.680;9.004;2022-12-07T13:34:29;4.70;99.90
10433;DHT22;5263;48.680;9.004;2022-12-07T13:36:55;4.70;99.90
10433;DHT22;5263;48.680;9.004;2022-12-07T13:39:24;4.70;99.90
10433;DHT22;5263;48.680;9.004;2022-12-07T13:41:56;4.50;99.90
10433;DHT22;5263;48.680;9.004;2022-12-07T13:44:24;4.70;99.90
10433;DHT22;5263;48.680;9.004;2022-12-07T13:49:50;4.70;99.90
10433;DHT22;5263;48.680;9.004;2022-12-07T13:52:22;4.70;99.90
10433;DHT22;5263;48.680;9.004;2022-12-07T13:57:31;4.30;99.90
10433;DHT22;5263;48.680;9.004;2022-12-07T14:00:00;4.50;99.90
10433;DHT22;5263;48.680;9.004;2022-12-07T14:02:32;4.30;99.90
10433;DHT22;5263;48.680;9.004;2022-12-07T14:05:22;4.40;99.90
10433;DHT22;5263;48.680;9.004;2022-12-07T14:10:37;4.20;99.90
10433;DHT22;5263;48.680;9.004;2022-12-07T14:13:39;4.30;99.90
10433;DHT22;5263;48.680;9.004;2022-12-07T14:16:31;4.40;99.90
10433;DHT22;5263;48.680;9.004;2022-12-07T14:18:58;4.40;99.90
10433;DHT22;5263;48.680;9.004;2022-12-07T14:21:29;4.40;99.90
10433;DHT22;5263;48.680;9.004;2022-12-07T14:24:15;4.10;99.90
10433;DHT22;5263;48.680;9.004;2022-12-07T14:26:42;4.30;99.90
10433;DHT22;5263;48.680;9.004;2022-12-07T14:31:52;4.30;99.90
10433;DHT22;5263;48.680;9.004;2022-12-07T14:34:21;4.20;99.90
10433;DHT22;5263;48.680;9.004;2022-12-07T14:36:47;4.10;99.90
10433;DHT22;5263;48.680;9.004;2022-12-07T14:39:13;4.10;99.90
10433;DHT22;5263;48.680;9.004;2022-12-07T14:41:38;4.20;99.90
10433;DHT22;5263;48.680;9.004;2022-12-07T14:44:17;4.10;99.90
10433;DHT22;5263;48.680;9.004;2022-12-07T14:46:42;3.90;99.90
10433;DHT22;5263;48.680;9.004;2022-12-07T14:49:08;3.70;99.90
10433;DHT22;5263;48.680;9.004;2022-12-07T14:51:36;3.50;99.90
10433;DHT22;5263;48.680;9.004;2022-12-07T14:54:05;3.30;99.90
10433;DHT22;5263;48.680;9.004;2022-12-07T14:56:31;3.30;99.90
10433;DHT22;5263;48.680;9.004;2022-12-07T14:58:57;3.40;99.90
10433;DHT22;5263;48.680;9.004;2022-12-07T15:01:23;3.30;99.90
10433;DHT22;5263;48.680;9.004;2022-12-07T15:03:48;3.20;99.90
10433;DHT22;5263;48.680;9.004;2022-12-07T15:06:16;3.40;99.90
10433;DHT22;5263;48.680;9.004;2022-12-07T15:08:42;3.60;99.90
10433;DHT22;5263;48.680;9.004;2022-12-07T15:11:15;3.70;99.90
10433;DHT22;5263;48.680;9.004;2022-12-07T15:13:41;3.50;99.90
10433;DHT22;5263;48.680;9.004;2022-12-07T15:16:25;3.50;99.90
10433;DHT22;5263;48.680;9.004;2022-12-07T15:18:51;3.60;99.90
10433;DHT22;5263;48.680;9.004;2022-12-07T15:21:17;3.70;99.90
10433;DHT22;5263;48.680;9.004;2022-12-07T15:23:43;3.60;99.90
10433;DHT22;5263;48.680;9.004;2022-12-07T15:26:10;3.60;99.90
10433;DHT22;5263;48.680;9.004;2022-12-07T15:28:36;3.50;99.90
10433;DHT22;5263;48.680;9.004;2022-12-07T15:31:02;3.50;99.90
10433;DHT22;5263;48.680;9.004;2022-12-07T15:33:28;3.60;99.90
10433;DHT22;5263;48.680;9.004;2022-12-07T15:35:53;3.70;99.90
10433;DHT22;5263;48.680;9.004;2022-12-07T15:38:19;3.70;99.90
10433;DHT22;5263;48.680;9.004;2022-12-07T15:40:48;3.80;99.90
10433;DHT22;5263;48.680;9.004;2022-12-07T15:43:13;3.70;99.90
10433;DHT22;5263;48.680;9.004;2022-12-07T15:45:58;3.70;99.90
10433;DHT22;5263;48.680;9.004;2022-12-07T15:48:24;3.60;99.90
10433;DHT22;5263;48.680;9.004;2022-12-07T15:50:50;3.50;99.90
10433;DHT22;5263;48.680;9.004;2022-12-07T15:53:16;3.30;99.90
10433;DHT22;5263;48.680;9.004;2022-12-07T15:55:42;3.40;99.90
10433;DHT22;5263;48.680;9.004;2022-12-07T15:58:08;3.40;99.90
10433;DHT22;5263;48.680;9.004;2022-12-07T16:00:33;3.30;99.90
10433;DHT22;5263;48.680;9.004;2022-12-07T16:02:59;3.30;99.90
10433;DHT22;5263;48.680;9.004;2022-12-07T16:05:24;3.20;99.90
10433;DHT22;5263;48.680;9.004;2022-12-07T16:07:50;3.20;99.90
10433;DHT22;5263;48.680;9.004;2022-12-07T16:10:16;3.00;99.90
10433;DHT22;5263;48.680;9.004;2022-12-07T16:12:41;3.10;99.90
10433;DHT22;5263;48.680;9.004;2022-12-07T16:15:07;3.10;99.90
10433;DHT22;5263;48.680;9.004;2022-12-07T16:17:33;3.10;99.90
10433;DHT22;5263;48.680;9.004;2022-12-07T16:19:58;3.10;99.90
10433;DHT22;5263;48.680;9.004;2022-12-07T16:22:24;2.90;99.90
10433;DHT22;5263;48.680;9.004;2022-12-07T16:24:50;2.80;99.90
10433;DHT22;5263;48.680;9.004;2022-12-07T16:27:15;2.70;99.90
10433;DHT22;5263;48.680;9.004;2022-12-07T16:29:41;2.90;99.90
10433;DHT22;5263;48.680;9.004;2022-12-07T16:32:07;2.80;99.90
10433;DHT22;5263;48.680;9.004;2022-12-07T16:34:33;2.90;99.90
10433;DHT22;5263;48.680;9.004;2022-12-07T16:36:58;2.90;99.90
10433;DHT22;5263;48.680;9.004;2022-12-07T16:39:24;2.90;99.90
10433;DHT22;5263;48.680;9.004;2022-12-07T16:41:50;3.00;99.90
10433;DHT22;5263;48.680;9.004;2022-12-07T16:44:16;3.00;99.90
10433;DHT22;5263;48.680;9.004;2022-12-07T16:46:42;2.90;99.90
10433;DHT22;5263;48.680;9.004;2022-12-07T16:49:12;2.80;99.90
10433;DHT22;5263;48.680;9.004;2022-12-07T16:51:38;2.80;99.90
10433;DHT22;5263;48.680;9.004;2022-12-07T16:54:04;2.90;99.90
10433;DHT22;5263;48.680;9.004;2022-12-07T16:56:30;2.80;99.90
10433;DHT22;5263;48.680;9.004;2022-12-07T16:58:58;2.80;99.90
10433;DHT22;5263;48.680;9.004;2022-12-07T17:01:24;2.70;99.90
10433;DHT22;5263;48.680;9.004;2022-12-07T17:03:49;2.80;99.90
10433;DHT22;5263;48.680;9.004;2022-12-07T17:06:23;2.70;99.90
10433;DHT22;5263;48.680;9.004;2022-12-07T17:08:50;2.50;99.90
10433;DHT22;5263;48.680;9.004;2022-12-07T17:11:18;2.60;99.90
10433;DHT22;5263;48.680;9.004;2022-12-07T17:13:44;2.70;99.90
10433;DHT22;5263;48.680;9.004;2022-12-07T17:16:29;2.70;99.90
10433;DHT22;5263;48.680;9.004;2022-12-07T17:18:55;2.80;99.90
10433;DHT22;5263;48.680;9.004;2022-12-07T17:21:21;2.80;99.90
10433;DHT22;5263;48.680;9.004;2022-12-07T17:23:48;2.60;99.90
10433;DHT22;5263;48.680;9.004;2022-12-07T17:26:17;2.50;99.90
10433;DHT22;5263;48.680;9.004;2022-12-07T17:28:43;2.60;99.90
10433;DHT22;5263;48.680;9.004;2022-12-07T17:31:11;2.70;99.90
10433;DHT22;5263;48.680;9.004;2022-12-07T17:33:37;2.50;99.90
10433;DHT22;5263;48.680;9.004;2022-12-07T17:36:14;2.50;99.90
10433;DHT22;5263;48.680;9.004;2022-12-07T17:38:40;2.60;99.90
10433;DHT22;5263;48.680;9.004;2022-12-07T17:41:12;2.50;99.90
10433;DHT22;5263;48.680;9.004;2022-12-07T17:43:58;2.60;99.90
10433;DHT22;5263;48.680;9.004;2022-12-07T17:46:23;2.50;99.90
10433;DHT22;5263;48.680;9.004;2022-12-07T17:48:49;2.40;99.90
10433;DHT22;5263;48.680;9.004;2022-12-07T17:51:15;2.50;99.90
10433;DHT22;5263;48.680;9.004;2022-12-07T17:53:59;2.60;99.90
10433;DHT22;5263;48.680;9.004;2022-12-07T17:56:24;2.90;99.90
10433;DHT22;5263;48.680;9.004;2022-12-07T17:58:50;2.90;99.90
10433;DHT22;5263;48.680;9.004;2022-12-07T18:01:16;2.80;99.90
10433;DHT22;5263;48.680;9.004;2022-12-07T18:03:41;2.80;99.90
10433;DHT22;5263;48.680;9.004;2022-12-07T18:06:07;2.70;99.90
10433;DHT22;5263;48.680;9.004;2022-12-07T18:08:35;2.70;99.90
10433;DHT22;5263;48.680;9.004;2022-12-07T18:11:04;2.30;99.90
10433;DHT22;5263;48.680;9.004;2022-12-07T18:13:29;2.10;99.90
10433;DHT22;5263;48.680;9.004;2022-12-07T18:16:03;2.10;99.90
10433;DHT22;5263;48.680;9.004;2022-12-07T18:18:29;1.90;99.90
10433;DHT22;5263;48.680;9.004;2022-12-07T18:20:55;1.80;99.90
10433;DHT22;5263;48.680;9.004;2022-12-07T18:23:21;1.80;99.90
10433;DHT22;5263;48.680;9.004;2022-12-07T18:25:48;1.70;99.90
10433;DHT22;5263;48.680;9.004;2022-12-07T18:28:14;1.70;99.90
10433;DHT22;5263;48.680;9.004;2022-12-07T18:30:40;1.70;99.90
10433;DHT22;5263;48.680;9.004;2022-12-07T18:33:06;1.60;99.90